sensor_id;sensor_type;location;lat;lon;timestamp;P1;durP1;ratioP1;P2;durP2;ratioP2
39698;SDS011;25372;50.582;12.250;2023-02-27T00:05:35;1.80;;;1.02;;
39698;SDS011;25372;50.582;12.250;2023-02-27T00:15:56;0.80;;;0.80;;
39698;SDS011;25372;50.582;12.250;2023-02-27T00:26:18;3.92;;;0.77;;
39698;SDS011;25372;50.582;12.250;2023-02-27T00:36:39;0.73;;;0.67;;
39698;SDS011;25372;50.582;12.250;2023-02-27T00:47:01;1.98;;;0.93;;
39698;SDS011;25372;50.582;12.250;2023-02-27T00:57:22;2.43;;;0.83;;
39698;SDS011;25372;50.582;12.250;2023-02-27T01:07:44;0.75;;;0.75;;
39698;SDS011;25372;50.582;12.250;2023-02-27T01:18:04;0.60;;;0.60;;
39698;SDS011;25372;50.582;12.250;2023-02-27T01:28:26;1.35;;;1.25;;
39698;SDS011;25372;50.582;12.250;2023-02-27T01:38:47;3.13;;;1.10;;
39698;SDS011;25372;50.582;12.250;2023-02-27T01:49:10;2.65;;;0.57;;
39698;SDS011;25372;50.582;12.250;2023-02-27T01:59:34;2.30;;;1.20;;
39698;SDS011;25372;50.582;12.250;2023-02-27T02:09:59;1.40;;;0.85;;
39698;SDS011;25372;50.582;12.250;2023-02-27T02:20:27;1.73;;;0.88;;
39698;SDS011;25372;50.582;12.250;2023-02-27T02:42:13;0.82;;;0.63;;
39698;SDS011;25372;50.582;12.250;2023-02-27T02:52:45;0.87;;;0.83;;
39698;SDS011;25372;50.582;12.250;2023-02-27T03:03:17;0.50;;;0.50;;
39698;SDS011;25372;50.582;12.250;2023-02-27T03:13:43;0.75;;;0.60;;
39698;SDS011;25372;50.582;12.250;2023-02-27T03:24:11;1.95;;;1.20;;
39698;SDS011;25372;50.582;12.250;2023-02-27T03:34:39;1.17;;;1.13;;
39698;SDS011;25372;50.582;12.250;2023-02-27T03:45:05;0.82;;;0.82;;
39698;SDS011;25372;50.582;12.250;2023-02-27T03:55:35;4.78;;;1.70;;
39698;SDS011;25372;50.582;12.250;2023-02-27T04:06:01;1.05;;;1.00;;
39698;SDS011;25372;50.582;12.250;2023-02-27T04:16:48;0.90;;;0.90;;
39698;SDS011;25372;50.582;12.250;2023-02-27T04:27:18;12.07;;;1.85;;
39698;SDS011;25372;50.582;12.250;2023-02-27T04:37:45;7.03;;;1.05;;
39698;SDS011;25372;50.582;12.250;2023-02-27T04:48:12;3.63;;;1.27;;
39698;SDS011;25372;50.582;12.250;2023-02-27T04:58:38;4.30;;;1.80;;
39698;SDS011;25372;50.582;12.250;2023-02-27T05:09:08;2.67;;;1.50;;
39698;SDS011;25372;50.582;12.250;2023-02-27T05:19:34;1.23;;;1.13;;
39698;SDS011;25372;50.582;12.250;2023-02-27T05:30:02;1.92;;;1.73;;
39698;SDS011;25372;50.582;12.250;2023-02-27T05:40:27;3.83;;;1.65;;
39698;SDS011;25372;50.582;12.250;2023-02-27T05:50:53;3.10;;;2.30;;
39698;SDS011;25372;50.582;12.250;2023-02-27T06:01:15;6.32;;;1.65;;
39698;SDS011;25372;50.582;12.250;2023-02-27T06:11:37;5.50;;;1.65;;
39698;SDS011;25372;50.582;12.250;2023-02-27T06:21:58;7.05;;;2.38;;
39698;SDS011;25372;50.582;12.250;2023-02-27T06:32:20;2.50;;;1.38;;
39698;SDS011;25372;50.582;12.250;2023-02-27T06:42:43;2.08;;;1.60;;
39698;SDS011;25372;50.582;12.250;2023-02-27T06:53:05;2.35;;;1.48;;
39698;SDS011;25372;50.582;12.250;2023-02-27T07:03:26;2.65;;;1.75;;
39698;SDS011;25372;50.582;12.250;2023-02-27T07:13:48;2.10;;;1.48;;
39698;SDS011;25372;50.582;12.250;2023-02-27T07:24:09;3.83;;;1.95;;
39698;SDS011;25372;50.582;12.250;2023-02-27T07:34:31;3.40;;;1.83;;
39698;SDS011;25372;50.582;12.250;2023-02-27T07:44:53;1.30;;;1.20;;
39698;SDS011;25372;50.582;12.250;2023-02-27T07:55:14;0.70;;;0.70;;
39698;SDS011;25372;50.582;12.250;2023-02-27T08:05:35;4.22;;;2.10;;
39698;SDS011;25372;50.582;12.250;2023-02-27T08:15:57;6.15;;;2.08;;
39698;SDS011;25372;50.582;12.250;2023-02-27T08:26:18;1.30;;;1.05;;
39698;SDS011;25372;50.582;12.250;2023-02-27T08:36:41;4.18;;;1.27;;
39698;SDS011;25372;50.582;12.250;2023-02-27T08:47:02;2.30;;;1.40;;
39698;SDS011;25372;50.582;12.250;2023-02-27T08:57:24;2.28;;;1.08;;
39698;SDS011;25372;50.582;12.250;2023-02-27T09:07:45;1.65;;;1.10;;
39698;SDS011;25372;50.582;12.250;2023-02-27T09:18:07;2.95;;;1.25;;
39698;SDS011;25372;50.582;12.250;2023-02-27T09:28:28;2.30;;;1.70;;
39698;SDS011;25372;50.582;12.250;2023-02-27T09:38:49;1.90;;;1.50;;
39698;SDS011;25372;50.582;12.250;2023-02-27T09:49:11;1.95;;;1.48;;
39698;SDS011;25372;50.582;12.250;2023-02-27T09:59:40;5.82;;;3.45;;
39698;SDS011;25372;50.582;12.250;2023-02-27T10:10:07;6.32;;;2.17;;
39698;SDS011;25372;50.582;12.250;2023-02-27T10:20:42;3.05;;;1.48;;
39698;SDS011;25372;50.582;12.250;2023-02-27T10:31:10;1.92;;;1.80;;
39698;SDS011;25372;50.582;12.250;2023-02-27T10:41:40;5.50;;;2.08;;
39698;SDS011;25372;50.582;12.250;2023-02-27T10:52:04;3.17;;;1.80;;
39698;SDS011;25372;50.582;12.250;2023-02-27T11:02:29;1.90;;;1.55;;
39698;SDS011;25372;50.582;12.250;2023-02-27T11:12:56;1.63;;;1.25;;
39698;SDS011;25372;50.582;12.250;2023-02-27T11:23:22;5.15;;;1.85;;
39698;SDS011;25372;50.582;12.250;2023-02-27T11:33:47;2.45;;;1.88;;
39698;SDS011;25372;50.582;12.250;2023-02-27T11:44:13;2.72;;;1.00;;
39698;SDS011;25372;50.582;12.250;2023-02-27T11:54:37;1.08;;;1.05;;
39698;SDS011;25372;50.582;12.250;2023-02-27T12:05:05;1.58;;;1.00;;
39698;SDS011;25372;50.582;12.250;2023-02-27T12:15:36;2.97;;;1.30;;
39698;SDS011;25372;50.582;12.250;2023-02-27T12:26:06;5.63;;;1.73;;
39698;SDS011;25372;50.582;12.250;2023-02-27T12:36:32;2.22;;;1.20;;
39698;SDS011;25372;50.582;12.250;2023-02-27T12:46:56;2.03;;;1.58;;
39698;SDS011;25372;50.582;12.250;2023-02-27T13:08:33;2.42;;;1.25;;
39698;SDS011;25372;50.582;12.250;2023-02-27T13:19:03;3.30;;;1.88;;
39698;SDS011;25372;50.582;12.250;2023-02-27T13:29:37;2.97;;;1.52;;
39698;SDS011;25372;50.582;12.250;2023-02-27T13:39:59;1.88;;;0.98;;
39698;SDS011;25372;50.582;12.250;2023-02-27T14:01:14;2.58;;;1.27;;
39698;SDS011;25372;50.582;12.250;2023-02-27T14:11:39;1.42;;;1.05;;
39698;SDS011;25372;50.582;12.250;2023-02-27T14:22:00;0.75;;;0.75;;
39698;SDS011;25372;50.582;12.250;2023-02-27T14:32:25;0.65;;;0.60;;
39698;SDS011;25372;50.582;12.250;2023-02-27T14:42:53;1.65;;;0.63;;
39698;SDS011;25372;50.582;12.250;2023-02-27T14:53:25;2.88;;;0.80;;
39698;SDS011;25372;50.582;12.250;2023-02-27T15:03:47;0.50;;;0.50;;
39698;SDS011;25372;50.582;12.250;2023-02-27T15:14:17;0.60;;;0.60;;
39698;SDS011;25372;50.582;12.250;2023-02-27T15:24:40;0.57;;;0.57;;
39698;SDS011;25372;50.582;12.250;2023-02-27T15:35:19;1.65;;;1.25;;
39698;SDS011;25372;50.582;12.250;2023-02-27T15:45:43;0.47;;;0.47;;
39698;SDS011;25372;50.582;12.250;2023-02-27T15:56:06;0.50;;;0.50;;
39698;SDS011;25372;50.582;12.250;2023-02-27T16:06:31;0.50;;;0.50;;
39698;SDS011;25372;50.582;12.250;2023-02-27T16:16:56;0.80;;;0.80;;
39698;SDS011;25372;50.582;12.250;2023-02-27T16:27:18;0.60;;;0.60;;
39698;SDS011;25372;50.582;12.250;2023-02-27T16:37:44;1.13;;;0.80;;
39698;SDS011;25372;50.582;12.250;2023-02-27T16:48:06;2.90;;;1.17;;
39698;SDS011;25372;50.582;12.250;2023-02-27T16:58:28;5.70;;;2.15;;
39698;SDS011;25372;50.582;12.250;2023-02-27T17:08:49;1.52;;;1.10;;
39698;SDS011;25372;50.582;12.250;2023-02-27T17:19:11;1.25;;;1.02;;
39698;SDS011;25372;50.582;12.250;2023-02-27T17:29:32;1.50;;;1.30;;
39698;SDS011;25372;50.582;12.250;2023-02-27T17:39:54;4.13;;;2.00;;
39698;SDS011;25372;50.582;12.250;2023-02-27T17:50:15;1.30;;;1.05;;
39698;SDS011;25372;50.582;12.250;2023-02-27T18:00:38;1.85;;;1.38;;
39698;SDS011;25372;50.582;12.250;2023-02-27T18:10:58;4.18;;;2.60;;
39698;SDS011;25372;50.582;12.250;2023-02-27T18:21:21;6.00;;;2.03;;
39698;SDS011;25372;50.582;12.250;2023-02-27T18:31:43;3.45;;;1.98;;
39698;SDS011;25372;50.582;12.250;2023-02-27T18:42:06;3.97;;;1.55;;
39698;SDS011;25372;50.582;12.250;2023-02-27T18:52:28;1.92;;;1.08;;
39698;SDS011;25372;50.582;12.250;2023-02-27T19:02:51;3.65;;;1.90;;
39698;SDS011;25372;50.582;12.250;2023-02-27T19:13:11;5.97;;;1.50;;
39698;SDS011;25372;50.582;12.250;2023-02-27T19:23:34;1.90;;;1.73;;
39698;SDS011;25372;50.582;12.250;2023-02-27T19:33:55;2.23;;;2.03;;
39698;SDS011;25372;50.582;12.250;2023-02-27T19:44:18;3.22;;;1.88;;
39698;SDS011;25372;50.582;12.250;2023-02-27T19:54:39;4.03;;;2.23;;
39698;SDS011;25372;50.582;12.250;2023-02-27T20:05:02;4.30;;;1.83;;
39698;SDS011;25372;50.582;12.250;2023-02-27T20:15:23;5.47;;;2.47;;
39698;SDS011;25372;50.582;12.250;2023-02-27T20:25:45;9.25;;;2.78;;
39698;SDS011;25372;50.582;12.250;2023-02-27T20:36:07;3.75;;;2.20;;
39698;SDS011;25372;50.582;12.250;2023-02-27T20:46:31;6.10;;;3.57;;
39698;SDS011;25372;50.582;12.250;2023-02-27T20:56:51;5.00;;;2.80;;
39698;SDS011;25372;50.582;12.250;2023-02-27T21:07:14;4.05;;;2.83;;
39698;SDS011;25372;50.582;12.250;2023-02-27T21:17:37;3.92;;;2.45;;
39698;SDS011;25372;50.582;12.250;2023-02-27T21:27:59;5.72;;;3.25;;
39698;SDS011;25372;50.582;12.250;2023-02-27T21:38:20;7.75;;;3.45;;
39698;SDS011;25372;50.582;12.250;2023-02-27T21:48:42;6.20;;;3.00;;
39698;SDS011;25372;50.582;12.250;2023-02-27T21:59:03;6.13;;;4.27;;
39698;SDS011;25372;50.582;12.250;2023-02-27T22:09:25;7.53;;;3.67;;
39698;SDS011;25372;50.582;12.250;2023-02-27T22:19:46;4.95;;;3.13;;
39698;SDS011;25372;50.582;12.250;2023-02-27T22:30:09;6.80;;;4.03;;
39698;SDS011;25372;50.582;12.250;2023-02-27T22:40:31;6.05;;;3.72;;
39698;SDS011;25372;50.582;12.250;2023-02-27T22:50:59;7.80;;;3.15;;
39698;SDS011;25372;50.582;12.250;2023-02-27T23:01:22;6.55;;;3.65;;
39698;SDS011;25372;50.582;12.250;2023-02-27T23:11:45;6.27;;;2.90;;
39698;SDS011;25372;50.582;12.250;2023-02-27T23:22:06;4.95;;;2.80;;
39698;SDS011;25372;50.582;12.250;2023-02-27T23:32:28;6.65;;;3.58;;
39698;SDS011;25372;50.582;12.250;2023-02-27T23:42:49;8.25;;;3.28;;
39698;SDS011;25372;50.582;12.250;2023-02-27T23:53:11;7.88;;;3.60;;
